createdAt,value
2023-04-14T00:01:19.675Z,81.02
2023-04-14T00:03:47.820Z,81.68
2023-04-14T00:06:15.795Z,80.80
2023-04-14T00:08:43.791Z,79.92
2023-04-14T00:11:13.060Z,80.84
2023-04-14T00:13:41.100Z,80.91
2023-04-14T00:16:09.279Z,81.08
2023-04-14T00:18:37.127Z,80.14
2023-04-14T00:21:05.288Z,80.08
2023-04-14T00:23:33.272Z,80.57
2023-04-14T00:26:01.368Z,80.63
2023-04-14T00:28:30.621Z,80.35
2023-04-14T00:30:58.524Z,80.14
2023-04-14T00:33:26.429Z,80.92
2023-04-14T00:35:55.066Z,80.55
2023-04-14T00:38:22.932Z,80.54
2023-04-14T00:40:50.993Z,80.41
2023-04-14T00:43:19.999Z,80.55
2023-04-14T00:45:52.379Z,80.16
2023-04-14T00:48:20.616Z,80.44
2023-04-14T00:50:48.845Z,80.53
2023-04-14T00:53:17.299Z,80.64
2023-04-14T00:55:45.281Z,80.89
2023-04-14T00:58:14.569Z,80.85
2023-04-14T01:00:42.756Z,80.94
2023-04-14T01:03:12.462Z,81.13
2023-04-14T01:05:40.452Z,80.36
2023-04-14T01:08:08.385Z,80.55
2023-04-14T01:10:41.944Z,80.30
2023-04-14T01:13:21.177Z,79.41
2023-04-14T01:15:53.766Z,79.41
2023-04-14T01:18:33.308Z,79.02
2023-04-14T01:21:07.383Z,78.43
2023-04-14T01:23:40.420Z,78.28
2023-04-14T01:26:19.542Z,77.91
2023-04-14T01:29:13.433Z,77.44
2023-04-14T01:31:48.188Z,77.20
2023-04-14T01:34:23.344Z,77.51
2023-04-14T01:36:58.053Z,77.74
2023-04-14T01:39:41.707Z,77.82
2023-04-14T01:42:14.966Z,78.10
2023-04-14T01:44:44.138Z,77.89
2023-04-14T01:47:16.513Z,78.40
2023-04-14T01:49:47.544Z,78.50
2023-04-14T01:52:17.422Z,78.50
2023-04-14T01:54:48.453Z,78.65
2023-04-14T01:57:20.251Z,78.42
2023-04-14T01:59:53.128Z,78.79
2023-04-14T02:02:24.193Z,78.13
2023-04-14T02:04:53.468Z,77.64
2023-04-14T02:07:23.433Z,77.62
2023-04-14T02:09:54.911Z,77.13
2023-04-14T02:12:26.547Z,76.25
2023-04-14T02:14:56.045Z,75.89
2023-04-14T02:17:26.030Z,76.01
2023-04-14T02:19:56.016Z,75.24
2023-04-14T02:22:24.096Z,75.31
2023-04-14T02:24:54.562Z,75.65
2023-04-14T02:27:31.300Z,75.18
2023-04-14T02:30:09.411Z,74.67
2023-04-14T02:32:41.371Z,74.46
2023-04-14T02:35:14.430Z,74.58
2023-04-14T02:37:45.564Z,74.28
2023-04-14T02:40:18.151Z,74.33
2023-04-14T02:42:49.133Z,74.12
2023-04-14T02:45:23.470Z,74.25
2023-04-14T02:47:56.749Z,74.29
2023-04-14T02:50:26.397Z,74.06
2023-04-14T02:53:05.401Z,73.92
2023-04-14T02:55:38.150Z,74.24
2023-04-14T02:58:06.785Z,74.59
2023-04-14T03:00:39.370Z,73.98
2023-04-14T03:03:09.655Z,74.38
2023-04-14T03:05:40.175Z,73.77
2023-04-14T03:08:12.575Z,73.31
2023-04-14T03:10:46.086Z,73.54
2023-04-14T03:13:17.855Z,72.56
2023-04-14T03:15:46.721Z,73.07
2023-04-14T03:18:17.534Z,73.17
2023-04-14T03:20:47.166Z,73.46
2023-04-14T03:23:19.525Z,73.40
2023-04-14T03:26:00.491Z,73.67
2023-04-14T03:28:32.978Z,73.03
2023-04-14T03:31:05.053Z,72.47
2023-04-14T03:33:55.423Z,72.38
2023-04-14T03:36:26.062Z,72.32
2023-04-14T03:38:59.552Z,71.25
2023-04-14T03:41:32.254Z,71.30
2023-04-14T03:44:01.527Z,70.63
2023-04-14T03:46:30.754Z,71.06
2023-04-14T03:49:02.326Z,71.93
2023-04-14T03:51:33.656Z,72.74
2023-04-14T03:54:03.324Z,74.17
2023-04-14T03:56:38.032Z,75.69
2023-04-14T03:59:09.627Z,77.00
2023-04-14T04:01:41.571Z,77.89
2023-04-14T04:04:11.688Z,78.20
2023-04-14T04:06:40.903Z,77.49
2023-04-14T04:09:12.601Z,77.57
2023-04-14T04:11:43.103Z,77.85
2023-04-14T04:14:13.483Z,77.68
2023-04-14T04:16:45.152Z,78.22
2023-04-14T04:19:15.929Z,77.99
2023-04-14T04:21:46.478Z,78.57
2023-04-14T04:24:16.658Z,78.08
2023-04-14T04:26:44.739Z,78.17
2023-04-14T04:29:13.223Z,78.49
2023-04-14T04:31:41.458Z,78.29
2023-04-14T04:34:09.530Z,78.31
2023-04-14T04:36:41.764Z,78.46
2023-04-14T04:39:10.350Z,78.79
2023-04-14T04:41:41.896Z,78.64
2023-04-14T04:44:09.941Z,77.99
2023-04-14T04:46:49.880Z,77.63
2023-04-14T04:49:18.174Z,76.96
2023-04-14T04:51:48.594Z,77.56
2023-04-14T04:54:19.422Z,77.49
2023-04-14T04:56:47.386Z,77.72
2023-04-14T04:59:15.442Z,78.03
2023-04-14T05:01:43.414Z,77.63
2023-04-14T05:04:11.713Z,78.33
2023-04-14T05:06:39.620Z,78.53
2023-04-14T05:09:09.002Z,79.00
2023-04-14T05:11:37.243Z,78.89
2023-04-14T05:14:05.253Z,78.36
2023-04-14T05:16:33.563Z,79.21
2023-04-14T05:19:03.998Z,79.03
2023-04-14T05:21:32.883Z,78.51
2023-04-14T05:24:01.009Z,78.54
2023-04-14T05:26:51.684Z,78.32
2023-04-14T05:29:19.071Z,77.96
2023-04-14T05:31:47.251Z,76.59
2023-04-14T05:34:15.461Z,76.37
2023-04-14T05:36:43.388Z,76.39
2023-04-14T05:39:11.610Z,76.20
2023-04-14T05:41:40.882Z,76.32
2023-04-14T05:44:08.872Z,75.68
2023-04-14T05:46:36.920Z,75.98
2023-04-14T05:49:04.933Z,75.76
2023-04-14T05:51:33.044Z,76.36
2023-04-14T05:54:01.289Z,76.62
2023-04-14T05:56:29.467Z,76.08
2023-04-14T05:58:58.775Z,75.51
2023-04-14T06:01:26.664Z,76.96
2023-04-14T06:03:54.889Z,75.87
2023-04-14T06:06:22.974Z,76.58
2023-04-14T06:08:51.003Z,76.12
2023-04-14T06:11:18.856Z,76.49
2023-04-14T06:13:46.797Z,76.15
2023-04-14T06:16:16.125Z,76.74
2023-04-14T06:18:44.021Z,76.21
2023-04-14T06:21:12.677Z,75.96
2023-04-14T06:23:40.614Z,76.40
2023-04-14T06:26:08.492Z,75.87
2023-04-14T06:28:36.442Z,76.12
2023-04-14T06:31:04.379Z,76.59
2023-04-14T06:33:33.771Z,77.00
2023-04-14T06:36:02.818Z,77.66
2023-04-14T06:38:30.764Z,78.45
2023-04-14T06:40:58.701Z,79.05
2023-04-14T06:43:28.325Z,78.94
2023-04-14T06:45:56.904Z,78.91
2023-04-14T06:48:24.836Z,79.13
2023-04-14T06:50:57.910Z,79.97
2023-04-14T06:53:25.930Z,79.43
2023-04-14T06:55:59.518Z,80.19
2023-04-14T06:58:28.110Z,79.86
2023-04-14T07:00:57.192Z,80.15
2023-04-14T07:03:25.568Z,80.39
2023-04-14T07:05:53.601Z,80.04
2023-04-14T07:08:23.097Z,80.07
2023-04-14T07:10:50.971Z,80.41
2023-04-14T07:13:18.921Z,80.41
2023-04-14T07:15:47.913Z,80.10
2023-04-14T07:18:16.014Z,79.25
2023-04-14T07:20:43.814Z,80.27
2023-04-14T07:23:11.662Z,79.48
2023-04-14T07:25:40.965Z,78.88
2023-04-14T07:28:08.874Z,78.14
2023-04-14T07:30:36.897Z,78.44
2023-04-14T07:33:05.003Z,78.14
2023-04-14T07:35:32.992Z,77.87
2023-04-14T07:38:01.011Z,78.51
2023-04-14T07:40:28.922Z,77.67
2023-04-14T07:42:58.610Z,78.23
2023-04-14T07:45:26.518Z,77.62
2023-04-14T07:47:57.065Z,77.27
2023-04-14T07:50:25.937Z,76.81
2023-04-14T07:52:53.850Z,76.79
2023-04-14T07:55:21.832Z,77.69
2023-04-14T07:57:49.722Z,77.19
2023-04-14T08:00:19.674Z,77.67
2023-04-14T08:02:47.811Z,76.78
2023-04-14T08:05:15.815Z,76.74
2023-04-14T08:07:43.742Z,77.28
2023-04-14T08:10:11.771Z,76.99
2023-04-14T08:12:39.773Z,76.90
2023-04-14T08:15:09.684Z,75.99
2023-04-14T08:17:39.004Z,75.89
2023-04-14T08:20:08.036Z,74.98
2023-04-14T08:22:36.118Z,74.52
2023-04-14T08:25:04.211Z,73.92
2023-04-14T08:27:32.675Z,72.24
2023-04-14T08:30:00.583Z,71.91
2023-04-14T08:32:28.932Z,70.15
2023-04-14T08:35:38.313Z,69.69
2023-04-14T08:37:46.279Z,68.35
2023-04-14T08:40:16.626Z,68.22
2023-04-14T08:42:45.853Z,67.76
2023-04-14T08:45:14.114Z,67.10
2023-04-14T08:47:44.453Z,67.07
2023-04-14T08:50:18.670Z,67.43
2023-04-14T08:52:48.098Z,67.60
2023-04-14T08:55:16.764Z,67.63
2023-04-14T08:57:46.342Z,67.26
2023-04-14T09:00:15.866Z,67.63
2023-04-14T09:02:44.622Z,67.95
2023-04-14T09:05:14.339Z,67.97
2023-04-14T09:07:43.717Z,67.98
2023-04-14T09:10:12.877Z,68.02
2023-04-14T09:12:41.920Z,67.56
2023-04-14T09:15:11.474Z,67.55
2023-04-14T09:17:39.498Z,67.30
2023-04-14T09:20:36.348Z,66.84
2023-04-14T09:22:59.241Z,66.58
2023-04-14T09:25:27.341Z,66.14
2023-04-14T09:27:55.933Z,66.24
2023-04-14T09:30:24.234Z,65.98
2023-04-14T09:32:53.252Z,66.07
2023-04-14T09:35:21.252Z,66.15
2023-04-14T09:37:49.690Z,65.90
2023-04-14T09:40:32.554Z,65.18
2023-04-14T09:43:01.740Z,65.36
2023-04-14T09:45:43.025Z,65.31
2023-04-14T09:48:12.961Z,65.79
2023-04-14T09:51:06.537Z,66.27
2023-04-14T09:53:36.201Z,66.42
2023-04-14T09:56:07.618Z,66.77
2023-04-14T09:58:37.398Z,66.78
2023-04-14T10:01:06.883Z,66.66
2023-04-14T10:03:37.412Z,66.73
2023-04-14T10:06:09.827Z,66.63
2023-04-14T10:08:39.547Z,66.65
2023-04-14T10:11:23.028Z,66.60
2023-04-14T10:13:52.403Z,66.74
2023-04-14T10:16:20.451Z,66.04
2023-04-14T10:18:48.552Z,65.47
2023-04-14T10:21:17.426Z,64.76
2023-04-14T10:23:46.277Z,64.71
2023-04-14T10:26:15.043Z,64.61
2023-04-14T10:28:47.660Z,63.99
2023-04-14T10:31:20.348Z,63.72
2023-04-14T10:33:48.601Z,63.34
2023-04-14T10:36:25.688Z,63.58
2023-04-14T10:39:00.874Z,63.42
2023-04-14T10:41:37.732Z,63.35
2023-04-14T10:44:23.447Z,63.60
2023-04-14T10:46:52.223Z,63.78
2023-04-14T10:49:20.160Z,63.22
2023-04-14T10:51:50.033Z,63.33
2023-04-14T10:54:19.406Z,63.50
2023-04-14T10:57:12.327Z,63.56
2023-04-14T10:59:47.482Z,63.77
2023-04-14T11:02:28.161Z,63.82
2023-04-14T11:05:05.104Z,63.89
2023-04-14T11:07:40.159Z,64.29
2023-04-14T11:10:28.419Z,64.17
2023-04-14T11:12:58.353Z,64.14
2023-04-14T11:15:44.408Z,64.05
2023-04-14T11:18:14.718Z,64.44
2023-04-14T11:20:43.436Z,64.09
2023-04-14T11:23:14.933Z,63.98
2023-04-14T11:25:43.033Z,63.93
2023-04-14T11:28:10.950Z,64.20
2023-04-14T11:30:42.221Z,64.53
2023-04-14T11:33:10.253Z,64.85
2023-04-14T11:35:38.242Z,65.52
2023-04-14T11:38:10.935Z,65.80
2023-04-14T11:40:38.963Z,65.96
2023-04-14T11:43:07.925Z,65.98
2023-04-14T11:45:36.044Z,66.21
2023-04-14T11:48:07.121Z,66.29
2023-04-14T11:50:38.734Z,66.51
2023-04-14T11:53:10.327Z,66.54
2023-04-14T11:55:38.550Z,67.10
2023-04-14T11:58:06.613Z,68.04
2023-04-14T12:00:34.920Z,69.00
2023-04-14T12:03:03.816Z,69.74
2023-04-14T12:05:34.422Z,70.55
2023-04-14T12:08:07.426Z,71.34
2023-04-14T12:10:35.877Z,71.54
2023-04-14T12:13:04.727Z,71.58
2023-04-14T12:15:34.518Z,71.50
2023-04-14T12:18:03.019Z,71.82
2023-04-14T12:20:31.427Z,72.14
2023-04-14T12:23:04.281Z,72.72
2023-04-14T12:25:33.888Z,72.54
2023-04-14T12:28:05.928Z,72.68
2023-04-14T12:30:34.119Z,72.53
2023-04-14T12:33:09.695Z,72.82
2023-04-14T12:35:37.677Z,73.04
2023-04-14T12:38:12.640Z,73.21
2023-04-14T12:40:42.558Z,73.28
2023-04-14T12:43:10.857Z,73.90
2023-04-14T12:45:42.660Z,74.31
2023-04-14T12:48:10.886Z,74.44
2023-04-14T12:50:38.812Z,74.93
2023-04-14T12:53:27.121Z,74.65
2023-04-14T12:56:09.460Z,75.40
2023-04-14T12:58:38.745Z,75.68
2023-04-14T13:01:07.858Z,75.87
2023-04-14T13:03:40.478Z,76.17
2023-04-14T13:06:08.866Z,76.39
2023-04-14T13:08:38.176Z,76.66
2023-04-14T13:11:06.285Z,76.91
2023-04-14T13:13:34.192Z,77.12
2023-04-14T13:16:14.893Z,77.75
2023-04-14T13:18:44.143Z,77.83
2023-04-14T13:21:12.558Z,78.56
2023-04-14T13:23:42.193Z,78.57
2023-04-14T13:26:10.478Z,78.22
2023-04-14T13:28:38.437Z,78.30
2023-04-14T13:31:06.874Z,78.84
2023-04-14T13:33:34.830Z,79.19
2023-04-14T13:36:03.214Z,79.56
2023-04-14T13:38:31.411Z,79.65
2023-04-14T13:41:01.126Z,79.19
2023-04-14T13:43:29.891Z,80.05
2023-04-14T13:45:59.005Z,80.53
2023-04-14T13:48:27.176Z,80.40
2023-04-14T13:50:55.944Z,79.96
2023-04-14T13:53:24.240Z,80.71
2023-04-14T13:55:52.479Z,81.33
2023-04-14T13:58:23.847Z,82.26
2023-04-14T14:00:52.705Z,82.98
2023-04-14T14:03:21.070Z,83.09
2023-04-14T14:05:49.167Z,83.17
2023-04-14T14:08:17.530Z,82.35
2023-04-14T14:10:46.190Z,83.15
2023-04-14T14:13:15.528Z,82.85
2023-04-14T14:15:46.560Z,83.13
2023-04-14T14:18:16.652Z,82.96
2023-04-14T14:20:47.265Z,82.82
2023-04-14T14:23:16.561Z,82.64
2023-04-14T14:25:44.503Z,82.35
2023-04-14T14:28:12.742Z,81.75
2023-04-14T14:30:40.931Z,82.06
2023-04-14T14:33:10.614Z,81.41
2023-04-14T14:35:39.000Z,82.13
2023-04-14T14:38:06.882Z,81.76
2023-04-14T14:40:35.055Z,82.31
2023-04-14T14:43:03.010Z,81.66
2023-04-14T14:45:32.337Z,81.68
2023-04-14T14:48:01.362Z,81.19
2023-04-14T14:50:30.716Z,81.28
2023-04-14T14:52:58.655Z,81.40
2023-04-14T14:55:27.329Z,80.61
2023-04-14T14:57:55.321Z,79.30
2023-04-14T15:00:23.167Z,79.09
2023-04-14T15:02:51.399Z,78.76
2023-04-14T15:05:19.529Z,79.24
2023-04-14T15:07:49.068Z,77.96
2023-04-14T15:10:17.137Z,77.74
2023-04-14T15:12:46.528Z,76.60
2023-04-14T15:15:14.580Z,76.18
2023-04-14T15:17:42.748Z,75.47
2023-04-14T15:20:11.877Z,75.26
2023-04-14T15:22:40.096Z,75.11
2023-04-14T15:25:10.569Z,75.14
2023-04-14T15:27:38.615Z,75.49
2023-04-14T15:30:08.292Z,76.06
2023-04-14T15:32:36.197Z,76.22
2023-04-14T15:35:04.231Z,76.79
2023-04-14T15:37:32.495Z,77.11
2023-04-14T15:40:01.427Z,76.94
2023-04-14T15:42:30.993Z,76.72
2023-04-14T15:45:00.317Z,76.16
2023-04-14T15:47:28.362Z,76.48
2023-04-14T15:50:05.743Z,76.25
2023-04-14T15:52:39.289Z,76.61
2023-04-14T15:55:08.986Z,77.40
2023-04-14T15:57:38.269Z,77.95
2023-04-14T16:00:08.228Z,78.04
2023-04-14T16:02:43.025Z,77.78
2023-04-14T16:05:11.868Z,77.88
2023-04-14T16:07:40.415Z,78.58
2023-04-14T16:10:09.052Z,78.13
2023-04-14T16:12:38.669Z,78.44
2023-04-14T16:15:08.636Z,78.00
2023-04-14T16:17:36.633Z,77.79
2023-04-14T16:20:05.670Z,78.39
2023-04-14T16:22:34.240Z,77.67
2023-04-14T16:25:02.239Z,77.74
2023-04-14T16:27:30.418Z,78.19
2023-04-14T16:29:59.730Z,78.65
2023-04-14T16:32:28.369Z,78.53
2023-04-14T16:34:56.368Z,77.84
2023-04-14T16:37:26.004Z,77.88
2023-04-14T16:39:57.159Z,78.14
2023-04-14T16:42:26.171Z,78.19
2023-04-14T16:44:54.630Z,78.31
2023-04-14T16:47:24.147Z,77.46
2023-04-14T16:49:52.938Z,77.50
2023-04-14T16:52:20.980Z,78.06
2023-04-14T16:54:48.844Z,77.73
2023-04-14T16:57:16.760Z,77.34
2023-04-14T16:59:46.078Z,78.11
2023-04-14T17:02:14.144Z,77.52
2023-04-14T17:04:43.888Z,77.79
2023-04-14T17:07:12.539Z,77.55
2023-04-14T17:09:40.537Z,76.99
2023-04-14T17:12:08.632Z,77.30
2023-04-14T17:14:37.158Z,77.50
2023-04-14T17:17:05.373Z,77.01
2023-04-14T17:19:34.191Z,77.41
2023-04-14T17:22:03.629Z,77.03
2023-04-14T17:24:31.541Z,76.94
2023-04-14T17:26:59.855Z,77.79
2023-04-14T17:29:28.829Z,77.48
2023-04-14T17:31:57.003Z,77.46
2023-04-14T17:34:24.895Z,77.25
2023-04-14T17:36:52.854Z,77.39
2023-04-14T17:39:26.789Z,76.63
2023-04-14T17:41:56.057Z,76.48
2023-04-14T17:44:27.692Z,77.00
2023-04-14T17:46:56.107Z,76.82
2023-04-14T17:49:24.020Z,76.86
2023-04-14T17:51:51.971Z,75.71
2023-04-14T17:54:19.999Z,75.61
2023-04-14T17:56:49.847Z,75.91
2023-04-14T17:59:18.037Z,75.85
2023-04-14T18:01:46.139Z,75.55
2023-04-14T18:04:14.140Z,75.43
2023-04-14T18:06:42.090Z,75.23
2023-04-14T18:09:11.208Z,74.77
2023-04-14T18:11:39.197Z,74.97
2023-04-14T18:14:08.576Z,74.63
2023-04-14T18:16:37.460Z,74.26
2023-04-14T18:19:06.044Z,74.58
2023-04-14T18:21:34.366Z,74.98
2023-04-14T18:26:33.076Z,74.35
2023-04-14T18:29:01.402Z,74.76
2023-04-14T18:31:31.399Z,75.17
2023-04-14T18:34:03.859Z,74.35
2023-04-14T18:36:32.544Z,74.50
2023-04-14T18:39:01.170Z,74.58
2023-04-14T18:41:29.608Z,74.57
2023-04-14T18:43:57.502Z,74.22
2023-04-14T18:46:25.607Z,73.82
2023-04-14T18:48:55.384Z,73.60
2023-04-14T18:51:23.303Z,73.26
2023-04-14T18:53:51.197Z,73.81
2023-04-14T18:56:19.955Z,72.53
2023-04-14T18:58:47.933Z,72.89
2023-04-14T19:01:17.310Z,73.05
2023-04-14T19:03:47.110Z,73.11
2023-04-14T19:06:17.053Z,72.31
2023-04-14T19:08:44.925Z,72.01
2023-04-14T19:11:12.863Z,71.72
2023-04-14T19:13:41.798Z,72.24
2023-04-14T19:16:11.750Z,72.37
2023-04-14T19:18:40.554Z,72.57
2023-04-14T19:21:09.181Z,72.05
2023-04-14T19:23:39.966Z,72.14
2023-04-14T19:26:10.325Z,71.71
2023-04-14T19:28:39.951Z,71.80
2023-04-14T19:31:07.968Z,72.14
2023-04-14T19:33:35.978Z,71.92
2023-04-14T19:36:04.809Z,72.01
2023-04-14T19:38:33.303Z,71.92
2023-04-14T19:41:02.600Z,71.65
2023-04-14T19:43:30.507Z,71.25
2023-04-14T19:46:03.423Z,71.13
2023-04-14T19:48:31.790Z,70.91
2023-04-14T19:50:59.922Z,70.92
2023-04-14T19:53:28.648Z,70.78
2023-04-14T19:55:58.233Z,70.57
2023-04-14T19:58:30.459Z,70.78
2023-04-14T20:00:58.896Z,71.11
2023-04-14T20:03:28.245Z,70.90
2023-04-14T20:05:58.045Z,71.04
2023-04-14T20:08:27.293Z,71.34
2023-04-14T20:10:55.928Z,71.00
2023-04-14T20:13:27.538Z,71.23
2023-04-14T20:15:56.894Z,71.50
2023-04-14T20:18:26.023Z,70.93
2023-04-14T20:20:54.753Z,70.97
2023-04-14T20:23:22.873Z,71.28
2023-04-14T20:25:51.490Z,71.32
2023-04-14T20:28:20.099Z,71.75
2023-04-14T20:30:50.900Z,71.40
2023-04-14T20:33:21.486Z,71.48
2023-04-14T20:35:51.595Z,70.98
2023-04-14T20:38:20.397Z,70.52
2023-04-14T20:40:48.438Z,70.23
2023-04-14T20:43:16.345Z,70.60
2023-04-14T20:45:45.079Z,70.85
2023-04-14T20:48:13.665Z,70.56
2023-04-14T20:50:44.283Z,70.56
2023-04-14T20:53:12.259Z,70.35
2023-04-14T20:55:41.079Z,70.07
2023-04-14T20:58:09.099Z,69.90
2023-04-14T21:00:36.986Z,69.69
2023-04-14T21:03:05.231Z,69.57
2023-04-14T21:05:33.396Z,69.44
2023-04-14T21:08:02.740Z,69.44
2023-04-14T21:10:30.659Z,69.83
2023-04-14T21:15:30.733Z,69.05
2023-04-14T21:15:56.130Z,69.29
2023-04-14T21:18:24.405Z,68.36
2023-04-14T21:20:52.282Z,68.40
2023-04-14T21:23:22.027Z,67.69
2023-04-14T21:25:50.049Z,67.62
2023-04-14T21:28:18.190Z,68.02
2023-04-14T21:30:46.083Z,67.80
2023-04-14T21:33:14.223Z,67.84
2023-04-14T21:35:42.196Z,68.10
2023-04-14T21:38:10.090Z,68.15
2023-04-14T21:40:39.554Z,68.72
2023-04-14T21:43:07.525Z,68.60
2023-04-14T21:45:35.875Z,68.66
2023-04-14T21:48:04.126Z,68.73
2023-04-14T21:50:33.213Z,68.26
2023-04-14T21:53:01.588Z,67.96
2023-04-14T21:55:29.538Z,68.31
2023-04-14T21:57:58.890Z,68.58
2023-04-14T22:00:27.851Z,68.06
2023-04-14T22:02:55.901Z,68.46
2023-04-14T22:05:24.236Z,68.17
2023-04-14T22:07:52.899Z,67.90
2023-04-14T22:10:23.428Z,68.26
2023-04-14T22:12:52.109Z,68.19
2023-04-14T22:15:21.590Z,67.67
2023-04-14T22:17:49.474Z,68.24
2023-04-14T22:20:18.155Z,68.69
2023-04-14T22:22:46.080Z,68.39
2023-04-14T22:25:14.288Z,68.37
2023-04-14T22:27:42.230Z,68.88
2023-04-14T22:30:11.704Z,68.96
2023-04-14T22:32:41.467Z,68.88
2023-04-14T22:35:10.360Z,68.97
2023-04-14T22:37:38.268Z,68.40
2023-04-14T22:40:07.376Z,68.83
2023-04-14T22:42:35.467Z,68.42
2023-04-14T22:45:03.538Z,68.50
2023-04-14T22:47:31.448Z,68.46
2023-04-14T22:50:02.587Z,68.50
2023-04-14T22:52:30.722Z,68.41
2023-04-14T22:54:58.600Z,67.98
2023-04-14T22:57:26.885Z,68.37
2023-04-14T22:59:54.934Z,68.46
2023-04-14T23:02:22.977Z,67.95
2023-04-14T23:04:51.327Z,68.00
2023-04-14T23:07:20.970Z,67.90
2023-04-14T23:09:49.595Z,67.91
2023-04-14T23:12:17.571Z,67.54
2023-04-14T23:14:45.409Z,67.91
2023-04-14T23:17:13.295Z,67.40
2023-04-14T23:19:41.159Z,67.43
2023-04-14T23:22:10.076Z,67.74
2023-04-14T23:24:39.394Z,67.48
2023-04-14T23:27:07.252Z,67.68
2023-04-14T23:29:35.157Z,67.42
2023-04-14T23:32:03.151Z,67.60
2023-04-14T23:34:31.289Z,68.02
2023-04-14T23:36:59.662Z,68.35
2023-04-14T23:39:28.000Z,68.71
2023-04-14T23:41:57.531Z,68.47
2023-04-14T23:44:25.744Z,68.04
2023-04-14T23:46:53.715Z,68.37
2023-04-14T23:49:24.206Z,69.10
2023-04-14T23:51:56.352Z,68.78
2023-04-14T23:54:24.389Z,68.37
2023-04-14T23:56:52.405Z,68.18
2023-04-14T23:59:21.935Z,67.50
